Pelham, North Carolina
Current Conditions -  °F | °C
As of 5:53 AM on Friday 19 Dec 2014 (Local Time) from KDAN Reporting Station
Clear Clear  
Wind Chill: 32°   Ceiling: Unl
Heat Index: 37°   Visibility: 10mi
Dew Point: 20°   Wind: 6mph
Humidity: 50%   Direction: 310°NW
Pressure: 30.13"   Gusts: NA
Location:  36.51°N, 79.47°W
Report Text: KDAN 191053Z AUTO 31005KT 10SM CLR 03/M07 A3013 RMK AO2 SLP200 T00281067
Loading
Personal Weather Stations






























Interactive Weather Map New forecast layout! Learn more

10-Day Weather Forecast

Advertisements
Track Severe Weather on mobile